sensor_id;sensor_type;location;lat;lon;timestamp;temperature;humidity
10192;DHT22;17580;50.850;4.504;2023-09-07T00:01:38;19.00;66.80
10192;DHT22;17580;50.850;4.504;2023-09-07T00:04:05;19.00;67.20
10192;DHT22;17580;50.850;4.504;2023-09-07T00:06:32;19.00;67.50
10192;DHT22;17580;50.850;4.504;2023-09-07T00:09:00;19.00;68.30
10192;DHT22;17580;50.850;4.504;2023-09-07T00:11:27;18.90;68.10
10192;DHT22;17580;50.850;4.504;2023-09-07T00:13:54;18.90;68.20
10192;DHT22;17580;50.850;4.504;2023-09-07T00:16:23;18.90;68.40
10192;DHT22;17580;50.850;4.504;2023-09-07T00:18:51;18.80;68.80
10192;DHT22;17580;50.850;4.504;2023-09-07T00:21:18;18.80;68.70
10192;DHT22;17580;50.850;4.504;2023-09-07T00:23:45;18.80;69.20
10192;DHT22;17580;50.850;4.504;2023-09-07T00:26:12;18.70;68.90
10192;DHT22;17580;50.850;4.504;2023-09-07T00:28:39;18.60;69.30
10192;DHT22;17580;50.850;4.504;2023-09-07T00:31:09;18.60;69.50
10192;DHT22;17580;50.850;4.504;2023-09-07T00:33:36;18.70;69.60
10192;DHT22;17580;50.850;4.504;2023-09-07T00:36:05;18.60;70.20
10192;DHT22;17580;50.850;4.504;2023-09-07T00:38:32;18.60;70.30
10192;DHT22;17580;50.850;4.504;2023-09-07T00:40:59;18.50;70.70
10192;DHT22;17580;50.850;4.504;2023-09-07T00:43:26;18.50;71.00
10192;DHT22;17580;50.850;4.504;2023-09-07T00:45:53;18.50;71.30
10192;DHT22;17580;50.850;4.504;2023-09-07T00:48:20;18.60;71.20
10192;DHT22;17580;50.850;4.504;2023-09-07T00:50:48;18.50;70.80
10192;DHT22;17580;50.850;4.504;2023-09-07T00:53:17;18.50;70.40
10192;DHT22;17580;50.850;4.504;2023-09-07T00:55:45;18.50;70.70
10192;DHT22;17580;50.850;4.504;2023-09-07T00:58:12;18.50;70.70
10192;DHT22;17580;50.850;4.504;2023-09-07T01:00:39;18.50;71.00
10192;DHT22;17580;50.850;4.504;2023-09-07T01:03:07;18.40;71.20
10192;DHT22;17580;50.850;4.504;2023-09-07T01:05:41;18.40;71.00
10192;DHT22;17580;50.850;4.504;2023-09-07T01:08:14;18.40;72.10
10192;DHT22;17580;50.850;4.504;2023-09-07T01:10:44;18.40;71.80
10192;DHT22;17580;50.850;4.504;2023-09-07T01:13:11;18.30;72.00
10192;DHT22;17580;50.850;4.504;2023-09-07T01:15:38;18.30;71.70
10192;DHT22;17580;50.850;4.504;2023-09-07T01:18:06;18.20;71.60
10192;DHT22;17580;50.850;4.504;2023-09-07T01:20:38;18.20;71.80
10192;DHT22;17580;50.850;4.504;2023-09-07T01:23:08;18.10;71.70
10192;DHT22;17580;50.850;4.504;2023-09-07T01:25:36;18.10;72.10
10192;DHT22;17580;50.850;4.504;2023-09-07T01:28:03;18.10;72.00
10192;DHT22;17580;50.850;4.504;2023-09-07T01:30:30;18.10;71.90
10192;DHT22;17580;50.850;4.504;2023-09-07T01:32:57;18.00;71.80
10192;DHT22;17580;50.850;4.504;2023-09-07T01:35:25;18.00;72.50
10192;DHT22;17580;50.850;4.504;2023-09-07T01:37:53;18.00;72.70
10192;DHT22;17580;50.850;4.504;2023-09-07T01:40:21;17.90;72.00
10192;DHT22;17580;50.850;4.504;2023-09-07T01:42:48;17.90;72.90
10192;DHT22;17580;50.850;4.504;2023-09-07T01:45:15;17.90;72.50
10192;DHT22;17580;50.850;4.504;2023-09-07T01:47:42;17.90;72.70
10192;DHT22;17580;50.850;4.504;2023-09-07T01:50:10;17.90;72.70
10192;DHT22;17580;50.850;4.504;2023-09-07T01:52:36;17.90;72.80
10192;DHT22;17580;50.850;4.504;2023-09-07T01:55:04;17.80;72.80
10192;DHT22;17580;50.850;4.504;2023-09-07T01:57:32;17.70;73.00
10192;DHT22;17580;50.850;4.504;2023-09-07T01:59:59;17.80;73.40
10192;DHT22;17580;50.850;4.504;2023-09-07T02:02:26;17.70;73.60
10192;DHT22;17580;50.850;4.504;2023-09-07T02:04:53;17.70;73.30
10192;DHT22;17580;50.850;4.504;2023-09-07T02:07:20;17.70;73.40
10192;DHT22;17580;50.850;4.504;2023-09-07T02:09:47;17.60;74.00
10192;DHT22;17580;50.850;4.504;2023-09-07T02:12:14;17.60;73.90
10192;DHT22;17580;50.850;4.504;2023-09-07T02:14:43;17.60;73.90
10192;DHT22;17580;50.850;4.504;2023-09-07T02:17:10;17.60;74.00
10192;DHT22;17580;50.850;4.504;2023-09-07T02:19:39;17.50;74.50
10192;DHT22;17580;50.850;4.504;2023-09-07T02:22:07;17.50;74.50
10192;DHT22;17580;50.850;4.504;2023-09-07T02:24:34;17.50;74.00
10192;DHT22;17580;50.850;4.504;2023-09-07T02:27:01;17.50;74.90
10192;DHT22;17580;50.850;4.504;2023-09-07T02:29:28;17.50;75.00
10192;DHT22;17580;50.850;4.504;2023-09-07T02:31:56;17.40;75.30
10192;DHT22;17580;50.850;4.504;2023-09-07T02:34:23;17.40;74.70
10192;DHT22;17580;50.850;4.504;2023-09-07T02:36:50;17.40;74.70
10192;DHT22;17580;50.850;4.504;2023-09-07T02:39:17;17.40;74.70
10192;DHT22;17580;50.850;4.504;2023-09-07T02:41:44;17.40;74.00
10192;DHT22;17580;50.850;4.504;2023-09-07T02:44:12;17.30;74.70
10192;DHT22;17580;50.850;4.504;2023-09-07T02:46:38;17.20;75.00
10192;DHT22;17580;50.850;4.504;2023-09-07T02:49:07;17.20;75.80
10192;DHT22;17580;50.850;4.504;2023-09-07T02:51:34;17.20;75.90
10192;DHT22;17580;50.850;4.504;2023-09-07T02:54:02;17.20;75.90
10192;DHT22;17580;50.850;4.504;2023-09-07T02:56:29;17.20;76.00
10192;DHT22;17580;50.850;4.504;2023-09-07T02:58:56;17.30;75.90
10192;DHT22;17580;50.850;4.504;2023-09-07T03:01:23;17.20;75.60
10192;DHT22;17580;50.850;4.504;2023-09-07T03:03:50;17.10;75.70
10192;DHT22;17580;50.850;4.504;2023-09-07T03:06:19;17.10;75.60
10192;DHT22;17580;50.850;4.504;2023-09-07T03:08:46;17.10;75.30
10192;DHT22;17580;50.850;4.504;2023-09-07T03:11:13;17.10;75.30
10192;DHT22;17580;50.850;4.504;2023-09-07T03:13:40;17.10;74.60
10192;DHT22;17580;50.850;4.504;2023-09-07T03:16:07;17.00;74.70
10192;DHT22;17580;50.850;4.504;2023-09-07T03:18:35;17.00;75.00
10192;DHT22;17580;50.850;4.504;2023-09-07T03:21:02;17.00;75.10
10192;DHT22;17580;50.850;4.504;2023-09-07T03:23:32;17.00;75.30
10192;DHT22;17580;50.850;4.504;2023-09-07T03:25:59;16.90;75.70
10192;DHT22;17580;50.850;4.504;2023-09-07T03:28:26;16.90;75.60
10192;DHT22;17580;50.850;4.504;2023-09-07T03:30:54;16.90;75.50
10192;DHT22;17580;50.850;4.504;2023-09-07T03:33:21;16.90;76.00
10192;DHT22;17580;50.850;4.504;2023-09-07T03:35:48;16.80;76.30
10192;DHT22;17580;50.850;4.504;2023-09-07T03:38:17;16.80;77.20
10192;DHT22;17580;50.850;4.504;2023-09-07T03:40:45;17.00;75.70
10192;DHT22;17580;50.850;4.504;2023-09-07T03:43:13;16.90;75.10
10192;DHT22;17580;50.850;4.504;2023-09-07T03:45:40;16.90;75.70
10192;DHT22;17580;50.850;4.504;2023-09-07T03:48:08;16.90;76.10
10192;DHT22;17580;50.850;4.504;2023-09-07T03:50:35;16.90;76.50
10192;DHT22;17580;50.850;4.504;2023-09-07T03:53:02;16.80;76.40
10192;DHT22;17580;50.850;4.504;2023-09-07T03:55:30;16.90;76.40
10192;DHT22;17580;50.850;4.504;2023-09-07T03:57:58;16.80;76.50
10192;DHT22;17580;50.850;4.504;2023-09-07T04:00:25;16.90;76.20
10192;DHT22;17580;50.850;4.504;2023-09-07T04:02:52;16.90;75.80
10192;DHT22;17580;50.850;4.504;2023-09-07T04:05:21;16.80;76.40
10192;DHT22;17580;50.850;4.504;2023-09-07T04:07:50;16.80;76.90
10192;DHT22;17580;50.850;4.504;2023-09-07T04:10:17;16.80;77.00
10192;DHT22;17580;50.850;4.504;2023-09-07T04:12:45;16.90;76.90
10192;DHT22;17580;50.850;4.504;2023-09-07T04:15:14;16.80;77.00
10192;DHT22;17580;50.850;4.504;2023-09-07T04:17:41;16.80;77.20
10192;DHT22;17580;50.850;4.504;2023-09-07T04:20:09;16.90;77.10
10192;DHT22;17580;50.850;4.504;2023-09-07T04:22:38;16.90;77.30
10192;DHT22;17580;50.850;4.504;2023-09-07T04:25:05;16.90;76.90
10192;DHT22;17580;50.850;4.504;2023-09-07T04:27:32;16.90;76.80
10192;DHT22;17580;50.850;4.504;2023-09-07T04:30:00;16.80;77.30
10192;DHT22;17580;50.850;4.504;2023-09-07T04:32:28;16.80;77.70
10192;DHT22;17580;50.850;4.504;2023-09-07T04:34:55;16.80;77.70
10192;DHT22;17580;50.850;4.504;2023-09-07T04:37:24;16.70;77.80
10192;DHT22;17580;50.850;4.504;2023-09-07T04:39:52;16.70;77.90
10192;DHT22;17580;50.850;4.504;2023-09-07T04:42:19;16.60;77.60
10192;DHT22;17580;50.850;4.504;2023-09-07T04:44:46;16.60;78.70
10192;DHT22;17580;50.850;4.504;2023-09-07T04:47:14;16.60;78.90
10192;DHT22;17580;50.850;4.504;2023-09-07T04:49:42;16.60;78.00
10192;DHT22;17580;50.850;4.504;2023-09-07T04:52:09;16.50;78.80
10192;DHT22;17580;50.850;4.504;2023-09-07T04:54:36;16.50;78.30
10192;DHT22;17580;50.850;4.504;2023-09-07T04:57:03;16.50;78.30
10192;DHT22;17580;50.850;4.504;2023-09-07T04:59:30;16.50;78.30
10192;DHT22;17580;50.850;4.504;2023-09-07T05:01:59;16.40;78.10
10192;DHT22;17580;50.850;4.504;2023-09-07T05:04:27;16.50;77.80
10192;DHT22;17580;50.850;4.504;2023-09-07T05:06:56;16.40;77.80
10192;DHT22;17580;50.850;4.504;2023-09-07T05:09:23;16.50;77.30
10192;DHT22;17580;50.850;4.504;2023-09-07T05:11:51;16.50;76.60
10192;DHT22;17580;50.850;4.504;2023-09-07T05:14:18;16.50;77.20
10192;DHT22;17580;50.850;4.504;2023-09-07T05:16:45;16.40;77.30
10192;DHT22;17580;50.850;4.504;2023-09-07T05:19:12;16.40;77.60
10192;DHT22;17580;50.850;4.504;2023-09-07T05:21:39;16.40;78.20
10192;DHT22;17580;50.850;4.504;2023-09-07T05:24:08;16.40;78.10
10192;DHT22;17580;50.850;4.504;2023-09-07T05:26:35;16.40;78.80
10192;DHT22;17580;50.850;4.504;2023-09-07T05:29:02;16.40;78.80
10192;DHT22;17580;50.850;4.504;2023-09-07T05:31:29;16.40;79.00
10192;DHT22;17580;50.850;4.504;2023-09-07T05:33:56;16.40;79.10
10192;DHT22;17580;50.850;4.504;2023-09-07T05:36:23;16.40;79.10
10192;DHT22;17580;50.850;4.504;2023-09-07T05:38:52;16.40;79.30
10192;DHT22;17580;50.850;4.504;2023-09-07T05:41:21;16.40;79.90
10192;DHT22;17580;50.850;4.504;2023-09-07T05:43:48;16.50;79.40
10192;DHT22;17580;50.850;4.504;2023-09-07T05:46:15;16.50;80.40
10192;DHT22;17580;50.850;4.504;2023-09-07T05:48:42;16.60;80.80
10192;DHT22;17580;50.850;4.504;2023-09-07T05:51:09;16.70;80.90
10192;DHT22;17580;50.850;4.504;2023-09-07T05:53:36;16.70;80.70
10192;DHT22;17580;50.850;4.504;2023-09-07T05:56:04;16.80;81.20
10192;DHT22;17580;50.850;4.504;2023-09-07T05:58:32;16.80;81.40
10192;DHT22;17580;50.850;4.504;2023-09-07T06:00:59;16.80;80.60
10192;DHT22;17580;50.850;4.504;2023-09-07T06:03:27;16.90;81.10
10192;DHT22;17580;50.850;4.504;2023-09-07T06:05:54;16.90;81.50
10192;DHT22;17580;50.850;4.504;2023-09-07T06:08:21;16.90;81.80
10192;DHT22;17580;50.850;4.504;2023-09-07T06:10:48;17.00;82.30
10192;DHT22;17580;50.850;4.504;2023-09-07T06:13:15;17.00;82.10
10192;DHT22;17580;50.850;4.504;2023-09-07T06:15:43;17.10;82.00
10192;DHT22;17580;50.850;4.504;2023-09-07T06:18:10;17.10;82.50
10192;DHT22;17580;50.850;4.504;2023-09-07T06:20:37;17.20;81.70
10192;DHT22;17580;50.850;4.504;2023-09-07T06:23:06;17.20;81.70
10192;DHT22;17580;50.850;4.504;2023-09-07T06:25:33;17.30;81.90
10192;DHT22;17580;50.850;4.504;2023-09-07T06:28:00;17.30;81.60
10192;DHT22;17580;50.850;4.504;2023-09-07T06:30:27;17.30;82.00
10192;DHT22;17580;50.850;4.504;2023-09-07T06:32:56;17.30;82.20
10192;DHT22;17580;50.850;4.504;2023-09-07T06:35:23;17.40;82.00
10192;DHT22;17580;50.850;4.504;2023-09-07T06:37:50;17.50;82.20
10192;DHT22;17580;50.850;4.504;2023-09-07T06:40:17;17.60;82.40
10192;DHT22;17580;50.850;4.504;2023-09-07T06:42:44;17.60;82.70
10192;DHT22;17580;50.850;4.504;2023-09-07T06:45:11;17.60;82.80
10192;DHT22;17580;50.850;4.504;2023-09-07T06:47:38;17.70;82.00
10192;DHT22;17580;50.850;4.504;2023-09-07T06:50:07;17.80;82.10
10192;DHT22;17580;50.850;4.504;2023-09-07T06:52:34;17.80;81.70
10192;DHT22;17580;50.850;4.504;2023-09-07T06:55:01;17.90;80.80
10192;DHT22;17580;50.850;4.504;2023-09-07T06:57:29;18.00;79.70
10192;DHT22;17580;50.850;4.504;2023-09-07T06:59:56;18.10;77.10
10192;DHT22;17580;50.850;4.504;2023-09-07T07:02:23;18.20;75.60
10192;DHT22;17580;50.850;4.504;2023-09-07T07:04:50;18.20;76.40
10192;DHT22;17580;50.850;4.504;2023-09-07T07:07:19;18.30;75.90
10192;DHT22;17580;50.850;4.504;2023-09-07T07:09:46;18.40;76.00
10192;DHT22;17580;50.850;4.504;2023-09-07T07:12:13;18.40;75.10
10192;DHT22;17580;50.850;4.504;2023-09-07T07:14:41;18.40;75.00
10192;DHT22;17580;50.850;4.504;2023-09-07T07:17:08;18.50;75.10
10192;DHT22;17580;50.850;4.504;2023-09-07T07:19:35;18.50;75.10
10192;DHT22;17580;50.850;4.504;2023-09-07T07:22:02;18.60;73.90
10192;DHT22;17580;50.850;4.504;2023-09-07T07:24:31;18.60;70.70
10192;DHT22;17580;50.850;4.504;2023-09-07T07:26:58;18.70;73.20
10192;DHT22;17580;50.850;4.504;2023-09-07T07:29:25;18.80;71.10
10192;DHT22;17580;50.850;4.504;2023-09-07T07:31:52;18.90;72.20
10192;DHT22;17580;50.850;4.504;2023-09-07T07:34:19;19.00;72.90
10192;DHT22;17580;50.850;4.504;2023-09-07T07:36:46;19.00;74.20
10192;DHT22;17580;50.850;4.504;2023-09-07T07:39:13;19.10;71.80
10192;DHT22;17580;50.850;4.504;2023-09-07T07:41:42;19.10;71.40
10192;DHT22;17580;50.850;4.504;2023-09-07T07:44:11;19.20;70.90
10192;DHT22;17580;50.850;4.504;2023-09-07T07:46:38;19.30;71.40
10192;DHT22;17580;50.850;4.504;2023-09-07T07:49:05;19.40;68.60
10192;DHT22;17580;50.850;4.504;2023-09-07T07:51:32;19.60;68.00
10192;DHT22;17580;50.850;4.504;2023-09-07T07:53:59;19.70;65.10
10192;DHT22;17580;50.850;4.504;2023-09-07T07:56:26;19.80;67.90
10192;DHT22;17580;50.850;4.504;2023-09-07T07:58:54;19.80;63.80
10192;DHT22;17580;50.850;4.504;2023-09-07T08:01:21;19.90;65.40
10192;DHT22;17580;50.850;4.504;2023-09-07T08:03:49;20.00;64.60
10192;DHT22;17580;50.850;4.504;2023-09-07T08:06:16;20.00;64.60
10192;DHT22;17580;50.850;4.504;2023-09-07T08:08:42;20.10;65.30
10192;DHT22;17580;50.850;4.504;2023-09-07T08:11:10;20.20;65.40
10192;DHT22;17580;50.850;4.504;2023-09-07T08:13:37;20.30;67.30
10192;DHT22;17580;50.850;4.504;2023-09-07T08:16:06;20.40;65.80
10192;DHT22;17580;50.850;4.504;2023-09-07T08:18:34;20.60;63.00
10192;DHT22;17580;50.850;4.504;2023-09-07T08:21:01;20.70;61.20
10192;DHT22;17580;50.850;4.504;2023-09-07T08:23:28;20.90;60.00
10192;DHT22;17580;50.850;4.504;2023-09-07T08:25:55;21.10;60.10
10192;DHT22;17580;50.850;4.504;2023-09-07T08:28:22;21.20;59.90
10192;DHT22;17580;50.850;4.504;2023-09-07T08:30:51;21.20;59.30
10192;DHT22;17580;50.850;4.504;2023-09-07T08:33:22;21.40;59.10
10192;DHT22;17580;50.850;4.504;2023-09-07T08:35:54;21.50;58.60
10192;DHT22;17580;50.850;4.504;2023-09-07T08:38:22;21.70;58.30
10192;DHT22;17580;50.850;4.504;2023-09-07T08:40:53;21.80;59.30
10192;DHT22;17580;50.850;4.504;2023-09-07T08:43:21;22.00;58.60
10192;DHT22;17580;50.850;4.504;2023-09-07T08:45:55;22.10;56.00
10192;DHT22;17580;50.850;4.504;2023-09-07T08:48:27;22.20;54.60
10192;DHT22;17580;50.850;4.504;2023-09-07T08:50:56;22.50;55.60
10192;DHT22;17580;50.850;4.504;2023-09-07T08:53:23;23.20;55.30
10192;DHT22;17580;50.850;4.504;2023-09-07T08:55:51;24.00;51.90
10192;DHT22;17580;50.850;4.504;2023-09-07T08:58:18;25.70;47.20
10192;DHT22;17580;50.850;4.504;2023-09-07T09:00:46;27.10;42.50
10192;DHT22;17580;50.850;4.504;2023-09-07T09:03:14;28.30;36.80
10192;DHT22;17580;50.850;4.504;2023-09-07T09:05:43;29.20;34.00
10192;DHT22;17580;50.850;4.504;2023-09-07T09:08:11;30.00;26.10
10192;DHT22;17580;50.850;4.504;2023-09-07T09:10:38;30.40;25.20
10192;DHT22;17580;50.850;4.504;2023-09-07T09:13:06;30.90;23.00
10192;DHT22;17580;50.850;4.504;2023-09-07T09:15:33;31.70;21.10
10192;DHT22;17580;50.850;4.504;2023-09-07T09:18:09;32.30;16.90
10192;DHT22;17580;50.850;4.504;2023-09-07T09:20:38;32.70;16.10
10192;DHT22;17580;50.850;4.504;2023-09-07T09:23:06;33.00;13.80
10192;DHT22;17580;50.850;4.504;2023-09-07T09:25:33;33.30;12.50
10192;DHT22;17580;50.850;4.504;2023-09-07T09:28:00;33.80;13.20
10192;DHT22;17580;50.850;4.504;2023-09-07T09:30:27;34.30;10.20
10192;DHT22;17580;50.850;4.504;2023-09-07T09:32:55;34.70;9.50
10192;DHT22;17580;50.850;4.504;2023-09-07T09:35:22;34.90;9.90
10192;DHT22;17580;50.850;4.504;2023-09-07T09:37:50;35.00;7.40
10192;DHT22;17580;50.850;4.504;2023-09-07T09:40:18;35.40;5.60
10192;DHT22;17580;50.850;4.504;2023-09-07T09:42:46;35.40;3.50
10192;DHT22;17580;50.850;4.504;2023-09-07T09:45:13;35.60;4.50
10192;DHT22;17580;50.850;4.504;2023-09-07T09:47:42;35.80;3.40
10192;DHT22;17580;50.850;4.504;2023-09-07T09:50:10;36.10;1.90
10192;DHT22;17580;50.850;4.504;2023-09-07T09:52:38;36.30;1.00
10192;DHT22;17580;50.850;4.504;2023-09-07T09:55:06;36.20;1.20
10192;DHT22;17580;50.850;4.504;2023-09-07T09:57:39;36.00;1.00
10192;DHT22;17580;50.850;4.504;2023-09-07T10:00:08;36.20;1.00
10192;DHT22;17580;50.850;4.504;2023-09-07T10:02:51;36.10;1.00
10192;DHT22;17580;50.850;4.504;2023-09-07T10:05:18;36.20;1.00
10192;DHT22;17580;50.850;4.504;2023-09-07T10:07:49;36.60;1.00
10192;DHT22;17580;50.850;4.504;2023-09-07T10:10:18;36.30;1.00
10192;DHT22;17580;50.850;4.504;2023-09-07T10:12:53;36.60;1.00
10192;DHT22;17580;50.850;4.504;2023-09-07T10:15:24;37.10;1.00
10192;DHT22;17580;50.850;4.504;2023-09-07T10:18:03;37.30;1.00
10192;DHT22;17580;50.850;4.504;2023-09-07T10:20:45;37.50;1.00
10192;DHT22;17580;50.850;4.504;2023-09-07T10:23:15;37.50;1.00
10192;DHT22;17580;50.850;4.504;2023-09-07T10:25:42;37.50;1.00
10192;DHT22;17580;50.850;4.504;2023-09-07T10:28:19;37.20;1.00
10192;DHT22;17580;50.850;4.504;2023-09-07T10:30:58;37.60;1.00
10192;DHT22;17580;50.850;4.504;2023-09-07T10:33:25;37.90;1.00
10192;DHT22;17580;50.850;4.504;2023-09-07T10:35:52;38.10;1.00
10192;DHT22;17580;50.850;4.504;2023-09-07T10:38:19;38.10;1.00
10192;DHT22;17580;50.850;4.504;2023-09-07T10:40:47;37.90;1.00
10192;DHT22;17580;50.850;4.504;2023-09-07T10:43:15;37.80;1.00
10192;DHT22;17580;50.850;4.504;2023-09-07T10:45:45;37.50;1.00
10192;DHT22;17580;50.850;4.504;2023-09-07T10:48:12;37.60;1.00
10192;DHT22;17580;50.850;4.504;2023-09-07T10:50:43;37.90;1.00
10192;DHT22;17580;50.850;4.504;2023-09-07T10:53:12;37.90;1.00
10192;DHT22;17580;50.850;4.504;2023-09-07T10:55:40;38.00;1.00
10192;DHT22;17580;50.850;4.504;2023-09-07T10:58:09;38.30;1.00
10192;DHT22;17580;50.850;4.504;2023-09-07T11:00:36;38.40;1.00
10192;DHT22;17580;50.850;4.504;2023-09-07T11:03:11;38.20;1.00
10192;DHT22;17580;50.850;4.504;2023-09-07T11:05:40;38.40;1.00
10192;DHT22;17580;50.850;4.504;2023-09-07T11:08:07;38.60;1.00
10192;DHT22;17580;50.850;4.504;2023-09-07T11:10:36;38.60;1.00
10192;DHT22;17580;50.850;4.504;2023-09-07T11:13:04;38.80;1.00
10192;DHT22;17580;50.850;4.504;2023-09-07T11:15:32;39.00;1.00
10192;DHT22;17580;50.850;4.504;2023-09-07T11:18:04;39.20;1.00
10192;DHT22;17580;50.850;4.504;2023-09-07T11:20:35;39.00;1.00
10192;DHT22;17580;50.850;4.504;2023-09-07T11:23:05;38.50;1.00
10192;DHT22;17580;50.850;4.504;2023-09-07T11:25:36;38.60;1.00
10192;DHT22;17580;50.850;4.504;2023-09-07T11:28:04;38.40;1.00
10192;DHT22;17580;50.850;4.504;2023-09-07T11:30:31;38.50;1.00
10192;DHT22;17580;50.850;4.504;2023-09-07T11:33:02;38.80;1.00
10192;DHT22;17580;50.850;4.504;2023-09-07T11:35:29;38.60;1.00
10192;DHT22;17580;50.850;4.504;2023-09-07T11:37:59;38.70;1.00
10192;DHT22;17580;50.850;4.504;2023-09-07T11:40:26;38.80;1.00
10192;DHT22;17580;50.850;4.504;2023-09-07T11:42:53;39.00;1.00
10192;DHT22;17580;50.850;4.504;2023-09-07T11:45:20;38.60;1.00
10192;DHT22;17580;50.850;4.504;2023-09-07T11:47:47;38.30;1.00
10192;DHT22;17580;50.850;4.504;2023-09-07T11:50:16;38.30;1.00
10192;DHT22;17580;50.850;4.504;2023-09-07T11:52:44;38.50;1.00
10192;DHT22;17580;50.850;4.504;2023-09-07T11:55:14;38.40;1.00
10192;DHT22;17580;50.850;4.504;2023-09-07T11:57:41;38.20;1.00
10192;DHT22;17580;50.850;4.504;2023-09-07T12:00:09;38.60;1.00
10192;DHT22;17580;50.850;4.504;2023-09-07T12:02:37;38.50;1.00
10192;DHT22;17580;50.850;4.504;2023-09-07T12:05:05;38.10;1.00
10192;DHT22;17580;50.850;4.504;2023-09-07T12:07:33;38.40;1.00
10192;DHT22;17580;50.850;4.504;2023-09-07T12:10:00;38.20;1.00
10192;DHT22;17580;50.850;4.504;2023-09-07T12:12:28;38.20;1.00
10192;DHT22;17580;50.850;4.504;2023-09-07T12:14:55;37.70;1.00
10192;DHT22;17580;50.850;4.504;2023-09-07T12:17:23;37.50;1.00
10192;DHT22;17580;50.850;4.504;2023-09-07T12:19:50;37.50;1.00
10192;DHT22;17580;50.850;4.504;2023-09-07T12:22:18;38.00;1.00
10192;DHT22;17580;50.850;4.504;2023-09-07T12:24:45;38.10;1.00
10192;DHT22;17580;50.850;4.504;2023-09-07T12:27:12;38.00;1.00
10192;DHT22;17580;50.850;4.504;2023-09-07T12:29:41;38.10;1.00
10192;DHT22;17580;50.850;4.504;2023-09-07T12:32:08;37.90;1.00
10192;DHT22;17580;50.850;4.504;2023-09-07T12:34:35;37.90;1.00
10192;DHT22;17580;50.850;4.504;2023-09-07T12:37:02;38.00;1.00
10192;DHT22;17580;50.850;4.504;2023-09-07T12:39:30;37.40;1.00
10192;DHT22;17580;50.850;4.504;2023-09-07T12:41:57;37.60;1.00
10192;DHT22;17580;50.850;4.504;2023-09-07T12:44:24;37.30;1.00
10192;DHT22;17580;50.850;4.504;2023-09-07T12:46:53;37.60;1.00
10192;DHT22;17580;50.850;4.504;2023-09-07T12:49:20;37.60;1.00
10192;DHT22;17580;50.850;4.504;2023-09-07T12:51:47;37.60;1.00
10192;DHT22;17580;50.850;4.504;2023-09-07T12:54:14;37.50;1.00
10192;DHT22;17580;50.850;4.504;2023-09-07T12:56:41;37.40;1.00
10192;DHT22;17580;50.850;4.504;2023-09-07T12:59:08;37.30;1.00
10192;DHT22;17580;50.850;4.504;2023-09-07T13:01:35;37.20;1.00
10192;DHT22;17580;50.850;4.504;2023-09-07T13:04:04;37.20;1.00
10192;DHT22;17580;50.850;4.504;2023-09-07T13:06:31;37.30;1.00
10192;DHT22;17580;50.850;4.504;2023-09-07T13:08:58;37.40;1.00
10192;DHT22;17580;50.850;4.504;2023-09-07T13:11:25;37.00;1.00
10192;DHT22;17580;50.850;4.504;2023-09-07T13:13:52;36.70;1.00
10192;DHT22;17580;50.850;4.504;2023-09-07T13:16:19;36.70;1.00
10192;DHT22;17580;50.850;4.504;2023-09-07T13:18:46;36.50;1.00
10192;DHT22;17580;50.850;4.504;2023-09-07T13:21:15;36.10;1.00
10192;DHT22;17580;50.850;4.504;2023-09-07T13:23:42;35.90;1.00
10192;DHT22;17580;50.850;4.504;2023-09-07T13:26:09;35.90;1.00
10192;DHT22;17580;50.850;4.504;2023-09-07T13:28:37;35.50;1.00
10192;DHT22;17580;50.850;4.504;2023-09-07T13:31:04;35.00;1.00
10192;DHT22;17580;50.850;4.504;2023-09-07T13:33:31;34.50;1.00
10192;DHT22;17580;50.850;4.504;2023-09-07T13:35:58;34.20;1.00
10192;DHT22;17580;50.850;4.504;2023-09-07T13:38:27;34.00;1.00
10192;DHT22;17580;50.850;4.504;2023-09-07T13:40:54;33.80;1.00
10192;DHT22;17580;50.850;4.504;2023-09-07T13:43:21;33.60;1.00
10192;DHT22;17580;50.850;4.504;2023-09-07T13:45:48;33.50;1.00
10192;DHT22;17580;50.850;4.504;2023-09-07T13:48:15;33.30;1.00
10192;DHT22;17580;50.850;4.504;2023-09-07T13:50:42;33.30;1.00
10192;DHT22;17580;50.850;4.504;2023-09-07T13:53:10;33.30;1.00
10192;DHT22;17580;50.850;4.504;2023-09-07T13:55:38;33.30;1.00
10192;DHT22;17580;50.850;4.504;2023-09-07T13:58:07;33.20;1.00
10192;DHT22;17580;50.850;4.504;2023-09-07T14:00:34;33.20;1.00
10192;DHT22;17580;50.850;4.504;2023-09-07T14:03:01;33.10;1.00
10192;DHT22;17580;50.850;4.504;2023-09-07T14:05:28;32.90;1.00
10192;DHT22;17580;50.850;4.504;2023-09-07T14:07:55;33.00;1.00
10192;DHT22;17580;50.850;4.504;2023-09-07T14:10:23;32.70;1.00
10192;DHT22;17580;50.850;4.504;2023-09-07T14:12:52;32.60;1.00
10192;DHT22;17580;50.850;4.504;2023-09-07T14:15:19;32.60;1.00
10192;DHT22;17580;50.850;4.504;2023-09-07T14:17:46;32.60;1.00
10192;DHT22;17580;50.850;4.504;2023-09-07T14:20:13;32.60;1.00
10192;DHT22;17580;50.850;4.504;2023-09-07T14:22:40;32.50;1.00
10192;DHT22;17580;50.850;4.504;2023-09-07T14:25:08;32.50;1.00
10192;DHT22;17580;50.850;4.504;2023-09-07T14:27:35;32.40;1.00
10192;DHT22;17580;50.850;4.504;2023-09-07T14:30:04;32.40;1.00
10192;DHT22;17580;50.850;4.504;2023-09-07T14:32:31;32.40;1.00
10192;DHT22;17580;50.850;4.504;2023-09-07T14:34:58;32.30;1.00
10192;DHT22;17580;50.850;4.504;2023-09-07T14:37:25;32.10;1.00
10192;DHT22;17580;50.850;4.504;2023-09-07T14:39:52;32.00;1.00
10192;DHT22;17580;50.850;4.504;2023-09-07T14:42:23;31.90;1.00
10192;DHT22;17580;50.850;4.504;2023-09-07T14:44:50;31.80;1.00
10192;DHT22;17580;50.850;4.504;2023-09-07T14:47:20;31.70;1.00
10192;DHT22;17580;50.850;4.504;2023-09-07T14:49:51;31.60;1.00
10192;DHT22;17580;50.850;4.504;2023-09-07T14:52:18;31.50;1.50
10192;DHT22;17580;50.850;4.504;2023-09-07T14:54:47;31.40;1.00
10192;DHT22;17580;50.850;4.504;2023-09-07T14:57:14;31.40;1.00
10192;DHT22;17580;50.850;4.504;2023-09-07T14:59:42;31.30;1.00
10192;DHT22;17580;50.850;4.504;2023-09-07T15:02:09;31.10;1.00
10192;DHT22;17580;50.850;4.504;2023-09-07T15:04:37;31.00;1.00
10192;DHT22;17580;50.850;4.504;2023-09-07T15:07:04;30.90;1.00
10192;DHT22;17580;50.850;4.504;2023-09-07T15:09:32;30.80;1.00
10192;DHT22;17580;50.850;4.504;2023-09-07T15:11:59;30.70;1.00
10192;DHT22;17580;50.850;4.504;2023-09-07T15:14:26;30.60;1.20
10192;DHT22;17580;50.850;4.504;2023-09-07T15:16:53;30.60;1.00
10192;DHT22;17580;50.850;4.504;2023-09-07T15:19:20;30.50;1.00
10192;DHT22;17580;50.850;4.504;2023-09-07T15:21:49;30.50;1.80
10192;DHT22;17580;50.850;4.504;2023-09-07T15:24:18;30.40;1.80
10192;DHT22;17580;50.850;4.504;2023-09-07T15:26:45;30.30;2.40
10192;DHT22;17580;50.850;4.504;2023-09-07T15:29:13;30.30;3.00
10192;DHT22;17580;50.850;4.504;2023-09-07T15:31:40;30.30;3.10
10192;DHT22;17580;50.850;4.504;2023-09-07T15:34:07;30.20;3.80
10192;DHT22;17580;50.850;4.504;2023-09-07T15:36:34;30.00;3.30
10192;DHT22;17580;50.850;4.504;2023-09-07T15:39:04;30.00;4.50
10192;DHT22;17580;50.850;4.504;2023-09-07T15:41:31;30.00;5.00